MI73 weather

CLOSED North Cedar Airport
Cedar Springs, Michigan, United States

Public forecast

Using degrees Fahrenheit for public forecast. Weather courtesy of forecast.io.

METAR (pilot weather report)

Closest report is Fremont Municipal Airport, 22.4 nm (41.5 km) WNW. Retrieved 2019/09/16 01:35 UTC (0 seconds ago):

KFFX 160135Z AUTO 00000KT 10SM OVC013 19/19 A3005 RMK AO2 T01940185

TAF (pilot weather forecast)

Forecast is more than 12 hours old.

Closest forecast is Gerald R. Ford International Airport, 22.7 nm (42.0 km) S. Retrieved 2019/09/15 00:36 UTC (1 day ago):

TAF KGRR 152335Z 1600/1624 12003KT P6SM OVC025 FM160600 20002KT 4SM BR OVC007 FM160800 VRB03KT 2SM BR OVC003 FM161400 05005KT 5SM BR BKN007 FM161600 05005KT P6SM BKN015 FM161900 04005KT P6SM SCT035